Time;durP1;ratioP1;P1;durP2;ratioP2;P2;SDS_P1;SDS_P2;PMS_P1;PMS_P2;Temp;Humidity;BMP_temperature;BMP_pressure;BME280_temperature;BME280_humidity;BME280_pressure;Samples;Min_cycle;Max_cycle;Signal;HPM_P1;HPM_P2
2021/07/20 00:02:11;;;;;;;18.00;16.13;;;;;;;19.33;76.69;98847.13;4976838;28;103070;-75
2021/07/20 00:04:40;;;;;;;15.95;14.25;;;;;;;19.42;76.36;98846.19;4993355;28;102653;-75
2021/07/20 00:07:08;;;;;;;17.25;15.52;;;;;;;19.46;76.22;98854.72;4977878;28;102975;-73
2021/07/20 00:09:37;;;;;;;18.92;16.52;;;;;;;19.31;77.08;98849.09;4984256;28;103214;-74
2021/07/20 00:12:06;;;;;;;16.80;15.13;;;;;;;19.35;77.09;98855.00;4992322;28;103067;-74
2021/07/20 00:14:34;;;;;;;15.98;14.35;;;;;;;19.40;77.21;98847.31;4979965;28;102729;-75
2021/07/20 00:17:04;;;;;;;15.38;13.85;;;;;;;19.47;76.62;98854.56;4992267;28;102746;-74
2021/07/20 00:19:32;;;;;;;15.07;13.57;;;;;;;19.33;77.18;98857.00;4972524;28;103295;-74
2021/07/20 00:22:00;;;;;;;13.45;12.18;;;;;;;19.44;76.43;98854.06;4971434;28;103141;-74
2021/07/20 00:24:28;;;;;;;13.40;12.15;;;;;;;19.48;76.51;98845.50;4982142;28;102687;-74
2021/07/20 00:26:57;;;;;;;13.88;12.48;;;;;;;19.49;76.27;98852.56;4991803;28;102952;-74
2021/07/20 00:29:25;;;;;;;14.38;12.98;;;;;;;19.47;76.49;98848.38;4989443;28;105544;-74
2021/07/20 00:31:53;;;;;;;14.00;12.50;;;;;;;19.39;77.14;98845.66;4993784;28;103845;-74
2021/07/20 00:34:21;;;;;;;13.40;12.10;;;;;;;19.10;78.49;98852.22;4986836;28;102685;-75
2021/07/20 00:36:49;;;;;;;14.95;13.43;;;;;;;19.11;78.50;98848.53;4988866;28;102704;-76
2021/07/20 00:39:17;;;;;;;17.10;15.40;;;;;;;18.83;80.67;98846.25;4991606;28;103313;-75
2021/07/20 00:41:45;;;;;;;17.40;15.70;;;;;;;18.63;81.37;98853.66;4982206;28;105260;-75
2021/07/20 00:44:15;;;;;;;17.00;15.30;;;;;;;18.78;80.10;98846.69;4988545;28;102731;-76
2021/07/20 00:46:43;;;;;;;16.27;14.68;;;;;;;18.83;79.93;98839.06;4978631;28;102753;-76
2021/07/20 00:49:12;;;;;;;14.68;13.23;;;;;;;18.87;78.91;98840.41;4990586;28;103355;-75
2021/07/20 00:51:41;;;;;;;18.13;16.20;;;;;;;18.81;79.53;98843.69;4988804;28;103320;-75
2021/07/20 00:54:10;;;;;;;18.08;16.08;;;;;;;18.69;79.33;98847.66;4976780;28;103032;-75
2021/07/20 00:56:39;;;;;;;18.20;16.30;;;;;;;18.63;79.40;98848.28;4990099;28;102657;-75
2021/07/20 00:59:08;;;;;;;17.05;15.32;;;;;;;18.57;79.58;98843.56;4990080;28;103560;-75
2021/07/20 01:01:38;;;;;;;16.05;14.20;;;;;;;18.29;80.98;98845.53;4960782;28;115023;-76
2021/07/20 01:04:06;;;;;;;16.60;14.85;;;;;;;18.19;80.83;98857.31;4981308;28;102718;-75
2021/07/20 01:06:35;;;;;;;15.60;14.05;;;;;;;18.07;81.71;98856.72;4979307;28;102880;-73
2021/07/20 01:09:07;;;;;;;17.88;15.63;;;;;;;18.03;81.24;98851.81;4973412;28;106099;-74
2021/07/20 01:11:41;;;;;;;15.07;13.63;;;;;;;18.11;80.82;98851.88;4989991;28;103270;-74
2021/07/20 01:14:09;;;;;;;16.10;14.43;;;;;;;18.23;79.79;98847.97;4991300;28;103211;-74
2021/07/20 01:16:43;;;;;;;13.32;12.02;;;;;;;18.06;80.76;98849.66;4989620;28;102858;-74
2021/07/20 01:19:15;;;;;;;16.85;14.38;;;;;;;18.10;80.20;98855.56;4975196;28;102761;-74
2021/07/20 01:21:45;;;;;;;15.52;13.95;;;;;;;18.15;80.04;98839.88;4991895;28;103502;-74
2021/07/20 01:24:19;;;;;;;16.10;13.88;;;;;;;18.07;80.32;98845.19;4990435;28;102692;-76
2021/07/20 01:26:52;;;;;;;14.93;13.38;;;;;;;17.99;80.79;98842.44;4981806;28;104047;-76
2021/07/20 01:29:22;;;;;;;11.88;10.75;;;;;;;18.09;80.43;98832.47;4991410;28;103181;-75
2021/07/20 01:31:52;;;;;;;15.85;14.35;;;;;;;18.16;79.99;98829.03;4978583;28;106297;-75
2021/07/20 01:34:22;;;;;;;17.17;14.40;;;;;;;18.03;81.06;98838.44;4965319;28;102659;-75
2021/07/20 01:36:51;;;;;;;12.50;11.30;;;;;;;18.18;80.03;98834.22;4977529;28;102829;-75
2021/07/20 01:39:23;;;;;;;12.63;11.48;;;;;;;18.25;79.73;98829.94;4990810;28;103510;-75
2021/07/20 01:41:54;;;;;;;13.27;12.05;;;;;;;18.24;79.85;98834.47;4990645;28;103232;-75
2021/07/20 01:44:24;;;;;;;12.15;11.05;;;;;;;18.29;79.67;98833.97;4980734;28;102821;-75
2021/07/20 01:46:55;;;;;;;13.27;11.98;;;;;;;18.25;80.42;98836.13;4985020;28;102747;-76
2021/07/20 01:49:26;;;;;;;10.52;9.52;;;;;;;18.26;80.24;98836.97;4989083;28;103069;-76
2021/07/20 01:52:03;;;;;;;16.75;14.45;;;;;;;18.19;80.80;98839.41;4983547;28;103165;-75
2021/07/20 01:54:36;;;;;;;14.75;13.32;;;;;;;18.15;80.98;98843.41;4992931;28;102622;-75
2021/07/20 01:57:05;;;;;;;16.77;14.98;;;;;;;18.10;81.08;98839.53;4971424;28;102728;-75
2021/07/20 01:59:51;;;;;;;13.18;11.77;;;;;;;18.05;81.26;98839.97;4987111;28;103375;-75
2021/07/20 02:02:51;;;;;;;12.88;11.57;;;;;;;18.07;80.85;98835.31;4987836;28;103051;-77
2021/07/20 02:08:29;;;;;;;13.30;12.00;;;;;;;18.04;81.00;98834.78;4986289;28;102867;-75
2021/07/20 02:11:10;;;;;;;15.93;14.32;;;;;;;17.86;82.17;98843.66;4990852;28;103247;-74
2021/07/20 02:14:05;;;;;;;13.32;12.00;;;;;;;17.75;82.82;98838.53;4970246;28;103173;-75
2021/07/20 02:17:14;;;;;;;13.98;12.68;;;;;;;17.70;82.83;98838.16;4920699;28;102750;-75
2021/07/20 02:19:47;;;;;;;16.63;14.85;;;;;;;17.67;82.60;98841.13;4920248;28;102773;-75
2021/07/20 02:22:28;;;;;;;16.67;14.82;;;;;;;17.62;83.04;98842.59;4942692;28;106255;-74
2021/07/20 02:24:58;;;;;;;17.48;15.77;;;;;;;17.55;83.17;98839.66;4994487;28;103252;-74
2021/07/20 02:27:29;;;;;;;13.15;11.90;;;;;;;17.55;83.48;98844.16;4976947;28;102803;-75
2021/07/20 02:30:11;;;;;;;13.02;11.68;;;;;;;17.52;83.39;98839.09;4990833;28;102620;-74
2021/07/20 02:32:43;;;;;;;13.00;11.77;;;;;;;17.54;82.93;98843.34;4983920;28;105912;-75
2021/07/20 02:35:25;;;;;;;16.75;14.73;;;;;;;17.44;83.69;98847.00;4989398;28;103375;-75
2021/07/20 02:37:57;;;;;;;13.88;12.48;;;;;;;17.35;84.21;98843.41;4984667;28;102669;-75
2021/07/20 02:40:29;;;;;;;14.57;13.15;;;;;;;17.43;83.54;98846.19;4981785;28;102770;-75
2021/07/20 02:43:02;;;;;;;13.77;12.48;;;;;;;17.39;83.80;98844.81;4989848;28;103195;-74
2021/07/20 02:45:36;;;;;;;13.43;12.05;;;;;;;17.38;83.41;98840.44;4990942;28;103203;-74
2021/07/20 02:48:11;;;;;;;15.40;13.80;;;;;;;17.38;83.28;98837.78;4982400;28;102660;-74
2021/07/20 02:50:40;;;;;;;13.40;11.93;;;;;;;17.36;83.46;98837.09;4980114;28;102836;-73
2021/07/20 02:53:16;;;;;;;17.90;16.00;;;;;;;17.16;84.91;98832.84;4996326;28;102738;-74
2021/07/20 02:55:54;;;;;;;15.57;13.88;;;;;;;17.22;84.33;98832.25;4992188;28;103282;-72
2021/07/20 02:58:26;;;;;;;15.88;14.25;;;;;;;17.26;84.27;98831.00;4976687;28;102665;-73
2021/07/20 03:00:57;;;;;;;15.13;13.52;;;;;;;17.26;83.97;98833.66;4966701;28;103077;-73
2021/07/20 03:03:25;;;;;;;13.57;12.18;;;;;;;17.30;83.88;98832.34;4981269;28;104020;-72
2021/07/20 03:05:59;;;;;;;12.70;11.32;;;;;;;17.26;83.51;98841.66;4983373;28;103305;-73
2021/07/20 03:08:30;;;;;;;16.65;15.07;;;;;;;17.12;84.13;98831.50;4961340;28;103021;-73
2021/07/20 03:11:11;;;;;;;13.85;12.43;;;;;;;16.95;85.61;98845.63;4977833;28;102661;-73
2021/07/20 03:13:46;;;;;;;14.13;12.75;;;;;;;16.89;85.94;98836.38;5004161;28;103301;-89
2021/07/20 03:16:17;;;;;;;12.68;11.38;;;;;;;16.83;86.16;98841.44;4998832;28;102652;-73
2021/07/20 03:18:48;;;;;;;11.85;10.70;;;;;;;16.96;84.81;98849.94;4980363;28;102684;-74
2021/07/20 03:21:17;;;;;;;11.43;10.32;;;;;;;17.00;84.71;98843.34;4996195;28;102695;-75
2021/07/20 03:23:48;;;;;;;16.52;12.27;;;;;;;16.95;85.33;98850.94;4994812;28;103604;-74
2021/07/20 03:26:17;;;;;;;16.42;12.98;;;;;;;16.95;85.27;98845.63;4982511;28;113129;-74
2021/07/20 03:28:50;;;;;;;12.07;10.82;;;;;;;16.98;85.02;98850.66;4976137;28;102655;-75
2021/07/20 03:31:19;;;;;;;12.63;11.38;;;;;;;16.97;84.27;98849.81;4992471;28;102555;-72
2021/07/20 03:33:54;;;;;;;12.02;10.88;;;;;;;16.91;85.07;98844.22;4975562;28;103906;-73
2021/07/20 03:36:32;;;;;;;15.57;13.93;;;;;;;16.85;85.01;98855.47;4980885;28;103343;-72
2021/07/20 03:39:01;;;;;;;12.88;11.60;;;;;;;16.81;85.50;98854.94;4968159;28;102592;-73
2021/07/20 03:41:30;;;;;;;12.95;11.65;;;;;;;16.76;85.65;98858.03;4993153;28;103118;-73
2021/07/20 03:44:01;;;;;;;15.43;13.95;;;;;;;16.78;85.52;98856.06;4991699;28;103808;-72
2021/07/20 03:46:32;;;;;;;12.68;11.52;;;;;;;16.80;85.05;98854.09;4972446;28;103119;-73
2021/07/20 03:49:01;;;;;;;16.33;12.57;;;;;;;16.77;85.53;98859.72;4982948;28;102692;-74
2021/07/20 03:51:37;;;;;;;14.73;12.88;;;;;;;16.78;85.51;98856.06;4982200;28;103175;-71
2021/07/20 03:54:09;;;;;;;15.73;14.02;;;;;;;16.72;85.99;98856.66;4992293;28;103548;-72
2021/07/20 03:56:41;;;;;;;13.63;12.35;;;;;;;16.81;85.41;98860.28;4990356;28;103173;-72
2021/07/20 03:59:13;;;;;;;10.82;9.82;;;;;;;16.79;85.20;98865.75;4979304;28;102795;-72
2021/07/20 04:02:01;;;;;;;12.40;11.18;;;;;;;16.90;84.66;98858.56;4988541;28;102726;-72
2021/07/20 04:04:38;;;;;;;11.50;10.40;;;;;;;16.96;84.23;98863.28;4972635;28;103420;-72
2021/07/20 04:07:13;;;;;;;10.80;9.80;;;;;;;16.96;83.98;98864.13;4971371;28;103932;-72
2021/07/20 04:10:02;;;;;;;11.02;9.93;;;;;;;17.00;83.57;98870.03;4991618;28;102766;-72
2021/07/20 04:12:55;;;;;;;10.93;9.93;;;;;;;17.00;83.80;98865.53;4988792;28;102710;-73
2021/07/20 04:15:49;;;;;;;14.25;12.77;;;;;;;16.93;84.38;98868.91;4991172;28;103493;-73
2021/07/20 04:18:21;;;;;;;12.18;10.98;;;;;;;16.81;85.42;98871.75;4978937;28;104367;-73
2021/07/20 04:20:49;;;;;;;13.02;10.80;;;;;;;16.89;84.64;98872.88;4988976;28;102692;-73
2021/07/20 04:23:21;;;;;;;16.83;12.52;;;;;;;16.87;84.82;98872.19;4990609;28;102742;-72
2021/07/20 04:26:00;;;;;;;13.30;12.00;;;;;;;16.79;85.61;98879.09;4989360;28;103395;-73
2021/07/20 04:28:35;;;;;;;16.38;13.48;;;;;;;16.72;86.25;98883.34;4972217;28;104610;-73
2021/07/20 04:31:08;;;;;;;14.88;13.38;;;;;;;16.60;86.94;98886.31;4993975;28;102780;-73
2021/07/20 04:33:38;;;;;;;15.30;13.30;;;;;;;16.71;86.35;98886.97;4993968;28;102603;-73
2021/07/20 04:36:26;;;;;;;14.80;13.27;;;;;;;16.64;87.83;98891.22;4988138;28;103670;-73
2021/07/20 04:39:02;;;;;;;15.43;13.68;;;;;;;16.71;87.07;98892.31;4990526;28;103695;-79
2021/07/20 04:41:31;;;;;;;16.67;14.98;;;;;;;16.67;87.46;98885.56;4988164;28;102886;-79
2021/07/20 04:43:59;;;;;;;14.15;12.77;;;;;;;16.59;87.86;98890.78;4965240;28;102682;-78
2021/07/20 04:46:47;;;;;;;14.43;13.02;;;;;;;16.60;87.96;98889.81;4968897;28;103466;-80
2021/07/20 04:49:16;;;;;;;19.38;15.68;;;;;;;16.61;88.30;98888.00;4984913;28;103457;-80
2021/07/20 04:51:46;;;;;;;18.05;14.32;;;;;;;16.70;87.92;98895.94;4989164;28;102957;-82
2021/07/20 04:54:17;;;;;;;14.95;13.05;;;;;;;16.70;88.11;98890.63;4960894;28;103069;-83
2021/07/20 04:56:55;;;;;;;13.63;12.10;;;;;;;16.91;87.19;98892.25;4979319;28;103344;-85
2021/07/20 04:59:23;;;;;;;13.52;12.13;;;;;;;16.98;87.10;98890.69;4989666;28;102596;-78
2021/07/20 05:01:54;;;;;;;14.50;13.00;;;;;;;17.04;86.83;98895.44;4975186;28;103187;-74
2021/07/20 05:04:28;;;;;;;12.18;10.98;;;;;;;17.19;86.19;98897.47;4956930;28;102805;-74
2021/07/20 05:06:58;;;;;;;12.27;11.07;;;;;;;17.13;86.50;98895.38;4989899;28;103350;-77
2021/07/20 05:09:27;;;;;;;12.18;10.93;;;;;;;17.24;86.35;98897.03;4964221;28;103105;-73
2021/07/20 05:11:57;;;;;;;15.57;13.65;;;;;;;17.30;85.79;98899.09;4964991;28;102873;-79
2021/07/20 05:14:25;;;;;;;12.23;11.02;;;;;;;17.31;85.59;98900.78;4981914;28;102664;-76
2021/07/20 05:16:55;;;;;;;12.10;10.77;;;;;;;17.46;84.68;98909.16;4978676;28;103366;-73
2021/07/20 05:19:24;;;;;;;10.95;9.85;;;;;;;17.54;84.75;98902.13;4970743;28;103163;-78
2021/07/20 05:22:14;;;;;;;15.15;12.93;;;;;;;17.53;84.21;98915.56;4963547;28;102803;-74
2021/07/20 05:24:52;;;;;;;11.30;10.20;;;;;;;17.57;84.80;98900.97;4985504;28;102718;-70
2021/07/20 05:27:23;;;;;;;14.27;12.05;;;;;;;17.72;84.25;98904.78;4963381;28;104934;-70
2021/07/20 05:29:53;;;;;;;12.98;11.32;;;;;;;17.66;83.79;98906.22;4968222;28;103173;-74
2021/07/20 05:32:38;;;;;;;11.88;10.60;;;;;;;17.78;83.71;98898.84;4983907;28;102596;-71
2021/07/20 05:35:10;;;;;;;13.43;12.10;;;;;;;17.80;82.94;98908.38;4962834;28;102630;-70
2021/07/20 05:37:40;;;;;;;16.45;13.60;;;;;;;17.90;82.64;98906.50;4969242;28;103389;-69
2021/07/20 05:40:15;;;;;;;12.68;11.23;;;;;;;17.98;82.42;98910.25;4965121;28;103107;-69
2021/07/20 05:42:45;;;;;;;15.80;11.95;;;;;;;18.03;82.19;98910.63;4985504;28;102645;-71
2021/07/20 05:45:27;;;;;;;16.08;14.30;;;;;;;18.05;82.25;98922.03;4982088;28;102929;-70
2021/07/20 05:48:00;;;;;;;12.60;11.40;;;;;;;18.05;81.90;98916.66;4957866;28;106547;-70
2021/07/20 05:50:46;;;;;;;18.25;13.98;;;;;;;17.66;83.52;98916.06;4959815;28;103705;-70
2021/07/20 05:53:33;;;;;;;11.18;10.07;;;;;;;17.84;83.18;98924.97;4961877;28;103207;-70
2021/07/20 05:56:26;;;;;;;14.95;12.40;;;;;;;17.76;83.02;98930.22;4982814;28;102963;-70
2021/07/20 05:59:06;;;;;;;14.43;13.00;;;;;;;18.11;81.70;98932.06;4978174;28;104851;-70
2021/07/20 06:01:38;;;;;;;16.52;14.10;;;;;;;17.80;82.01;98924.44;4977156;28;104206;-71
2021/07/20 06:04:12;;;;;;;16.75;13.48;;;;;;;17.69;83.40;98924.63;4973026;28;102653;-71
2021/07/20 06:06:41;;;;;;;12.25;10.35;;;;;;;18.18;81.54;98922.47;4990352;28;102711;-71
2021/07/20 06:09:10;;;;;;;17.30;13.15;;;;;;;18.34;80.40;98928.81;4984166;28;103191;-71
2021/07/20 06:11:41;;;;;;;14.02;12.05;;;;;;;18.47;79.51;98931.91;4969666;28;103161;-71
2021/07/20 06:14:10;;;;;;;15.35;11.82;;;;;;;18.28;79.45;98929.41;4985497;28;104298;-71
2021/07/20 06:16:42;;;;;;;13.68;11.60;;;;;;;18.35;80.36;98930.50;4983091;28;103728;-71
2021/07/20 06:19:11;;;;;;;13.88;12.38;;;;;;;18.36;78.99;98926.81;4987134;28;103496;-67
2021/07/20 06:21:43;;;;;;;13.73;11.57;;;;;;;18.35;79.24;98935.00;4986003;28;103385;-67
2021/07/20 06:24:19;;;;;;;12.93;11.57;;;;;;;18.64;78.15;98935.59;4978319;28;102741;-68
2021/07/20 06:26:48;;;;;;;9.55;8.55;;;;;;;18.62;78.49;98937.56;4992134;28;102722;-68
2021/07/20 06:29:16;;;;;;;13.20;10.57;;;;;;;18.61;77.27;98937.75;4988972;28;103303;-68
2021/07/20 06:31:45;;;;;;;18.55;12.15;;;;;;;17.90;78.77;98930.56;4987555;28;103226;-68
2021/07/20 06:34:15;;;;;;;11.70;9.88;;;;;;;18.41;78.90;98929.03;4983931;28;102681;-68
2021/07/20 06:36:44;;;;;;;16.08;11.52;;;;;;;18.62;77.86;98942.94;4983328;28;103274;-69
2021/07/20 06:39:14;;;;;;;13.43;11.43;;;;;;;18.98;75.28;98939.16;4968896;28;103362;-68
2021/07/20 06:41:42;;;;;;;15.75;11.77;;;;;;;18.74;75.38;98947.06;4973725;28;103605;-68
2021/07/20 06:44:11;;;;;;;11.65;9.35;;;;;;;19.07;75.33;98932.03;4990628;28;102673;-68
2021/07/20 06:46:39;;;;;;;12.13;9.63;;;;;;;19.18;74.64;98933.59;4980374;28;102691;-68
2021/07/20 06:49:07;;;;;;;13.90;10.70;;;;;;;19.32;73.94;98947.22;4988452;28;104102;-68
2021/07/20 06:51:36;;;;;;;13.50;12.10;;;;;;;19.23;74.32;98937.47;4966012;28;103289;-68
2021/07/20 06:54:04;;;;;;;11.57;10.38;;;;;;;18.78;75.37;98947.59;4987826;28;103120;-68
2021/07/20 06:56:39;;;;;;;12.90;10.55;;;;;;;19.32;74.78;98941.03;4973425;28;102717;-68
2021/07/20 06:59:08;;;;;;;11.75;10.55;;;;;;;19.26;74.33;98937.16;4990138;28;103721;-68
2021/07/20 07:01:39;;;;;;;15.15;10.88;;;;;;;19.54;74.38;98935.13;4991349;28;111973;-69
2021/07/20 07:04:13;;;;;;;15.48;12.02;;;;;;;19.27;73.47;98951.38;4986358;28;102776;-69
2021/07/20 07:06:47;;;;;;;11.65;9.77;;;;;;;19.51;74.07;98935.44;4989632;28;102765;-67
2021/07/20 07:09:15;;;;;;;14.13;10.38;;;;;;;19.98;72.30;98931.25;4989133;28;103542;-67
2021/07/20 07:11:45;;;;;;;16.33;11.55;;;;;;;20.08;70.90;98939.97;4965027;28;104548;-67
2021/07/20 07:14:13;;;;;;;15.65;11.43;;;;;;;19.69;71.16;98941.56;4976797;28;102977;-68
2021/07/20 07:16:43;;;;;;;17.83;11.48;;;;;;;19.36;72.79;98937.03;4990436;28;103046;-68
2021/07/20 07:19:16;;;;;;;17.65;11.65;;;;;;;19.50;72.40;98942.66;4987682;28;103345;-68
2021/07/20 07:21:47;;;;;;;12.30;10.63;;;;;;;19.40;72.94;98938.41;4990133;28;103753;-68
2021/07/20 07:24:17;;;;;;;12.43;10.55;;;;;;;19.73;72.28;98932.19;4992726;28;102673;-68
2021/07/20 07:26:46;;;;;;;9.57;8.63;;;;;;;20.09;72.68;98935.47;4988263;28;102873;-68
2021/07/20 07:29:17;;;;;;;15.63;12.38;;;;;;;20.13;72.00;98943.00;4987283;28;103344;-68
2021/07/20 07:31:45;;;;;;;13.43;11.07;;;;;;;20.36;70.41;98931.66;4988531;28;103163;-68
2021/07/20 07:34:14;;;;;;;12.52;10.63;;;;;;;20.77;69.73;98936.03;4988053;28;102784;-68
2021/07/20 07:36:44;;;;;;;16.63;11.63;;;;;;;20.53;69.98;98944.06;4970688;28;102766;-68
2021/07/20 07:39:15;;;;;;;13.40;11.55;;;;;;;20.38;70.57;98937.72;4985792;28;103302;-68
2021/07/20 07:41:45;;;;;;;15.35;10.77;;;;;;;20.68;70.43;98935.19;4987644;28;103248;-68
2021/07/20 07:44:16;;;;;;;14.55;11.75;;;;;;;20.36;71.25;98937.03;4988926;28;102627;-68
2021/07/20 07:46:46;;;;;;;11.93;10.82;;;;;;;20.80;70.61;98935.66;4986131;28;102704;-68
2021/07/20 07:49:15;;;;;;;14.68;11.75;;;;;;;21.02;69.26;98934.97;4990171;28;103343;-68
2021/07/20 07:51:45;;;;;;;12.98;11.00;;;;;;;21.14;68.70;98939.00;4992959;28;103682;-68
2021/07/20 07:54:15;;;;;;;16.63;12.55;;;;;;;20.99;69.64;98940.69;4991382;28;102616;-68
2021/07/20 07:56:45;;;;;;;12.80;9.48;;;;;;;21.88;67.10;98938.56;4986064;28;102696;-69
2021/07/20 07:59:15;;;;;;;11.45;10.25;;;;;;;22.19;65.46;98935.84;4987962;28;112021;-69
2021/07/20 08:01:49;;;;;;;13.50;11.05;;;;;;;21.51;66.11;98941.06;4965773;28;112981;-69
2021/07/20 08:04:20;;;;;;;11.70;10.35;;;;;;;22.26;65.50;98941.38;4962455;28;102678;-70
2021/07/20 08:06:50;;;;;;;12.52;9.68;;;;;;;22.32;65.08;98946.84;4987233;28;102616;-70
2021/07/20 08:09:21;;;;;;;9.15;8.30;;;;;;;22.75;65.04;98947.22;4987860;28;103565;-69
2021/07/20 08:11:50;;;;;;;12.63;9.93;;;;;;;23.28;62.97;98936.22;4989189;28;103075;-70
2021/07/20 08:14:22;;;;;;;12.10;10.48;;;;;;;22.37;63.92;98944.44;4984235;28;102693;-70
2021/07/20 08:16:55;;;;;;;10.57;9.48;;;;;;;22.71;63.39;98946.72;4992994;28;102638;-70
2021/07/20 08:19:26;;;;;;;11.38;9.70;;;;;;;22.49;63.06;98936.78;4987501;28;103341;-70
2021/07/20 08:21:58;;;;;;;13.85;10.65;;;;;;;22.90;63.69;98940.00;4989347;28;103192;-70
2021/07/20 08:24:30;;;;;;;12.57;10.90;;;;;;;22.38;63.19;98953.38;4987554;28;103016;-70
2021/07/20 08:27:03;;;;;;;13.70;9.38;;;;;;;22.99;62.03;98947.81;4976103;28;102791;-69
2021/07/20 08:29:35;;;;;;;11.70;9.85;;;;;;;22.71;59.83;98956.69;4988817;28;103271;-71
2021/07/20 08:32:09;;;;;;;10.27;9.18;;;;;;;23.27;60.67;98947.22;4986217;28;104102;-70
2021/07/20 08:34:44;;;;;;;13.43;9.45;;;;;;;24.07;57.88;98945.38;4990494;28;102671;-71
2021/07/20 08:37:34;;;;;;;12.68;10.38;;;;;;;23.91;56.43;98941.06;4985443;28;102949;-71
2021/07/20 08:52:05;;;;;;;9.00;8.10;;;;;;;23.06;60.41;98947.94;4621165;22;104369;-73
2021/07/20 08:54:44;;;;;;;13.23;9.50;;;;;;;23.96;56.24;98948.56;4959975;28;103258;-72
2021/07/20 08:57:14;;;;;;;9.45;8.38;;;;;;;24.95;55.29;98951.28;4948151;28;103797;-73
2021/07/20 08:59:50;;;;;;;10.23;9.23;;;;;;;24.62;54.58;98945.53;4957337;28;103008;-73
2021/07/20 09:02:34;;;;;;;10.10;8.95;;;;;;;25.46;52.89;98943.69;4939085;28;102801;-72
2021/07/20 09:05:09;;;;;;;10.55;8.95;;;;;;;24.02;56.29;98937.84;4955968;28;103172;-72
2021/07/20 09:07:44;;;;;;;11.13;9.52;;;;;;;24.00;56.28;98934.50;4941774;28;103098;-72
2021/07/20 09:10:13;;;;;;;11.77;9.38;;;;;;;24.00;55.00;98939.06;4956751;28;102914;-72
2021/07/20 09:12:49;;;;;;;10.10;8.95;;;;;;;24.41;55.95;98936.63;4954575;28;102796;-73
2021/07/20 09:15:20;;;;;;;10.68;9.25;;;;;;;24.83;55.41;98936.63;4959573;28;103563;-73
2021/07/20 09:18:02;;;;;;;11.75;9.45;;;;;;;25.21;52.42;98939.78;4943238;28;106221;-73
2021/07/20 09:20:34;;;;;;;14.82;10.85;;;;;;;24.37;54.45;98944.25;4959573;28;103026;-73
2021/07/20 09:23:08;;;;;;;11.65;9.82;;;;;;;25.22;52.27;98941.47;4961686;28;102805;-73
2021/07/20 09:25:38;;;;;;;11.55;9.50;;;;;;;26.67;51.22;98937.47;4960923;28;103190;-71
2021/07/20 09:28:12;;;;;;;14.32;10.25;;;;;;;25.89;51.70;98939.78;4928012;28;106248;-72
2021/07/20 09:30:43;;;;;;;11.82;10.45;;;;;;;24.72;54.01;98937.97;4958759;28;102690;-72
2021/07/20 09:33:18;;;;;;;12.30;10.32;;;;;;;25.27;54.19;98934.44;4959888;28;102863;-71
2021/07/20 09:35:53;;;;;;;11.00;9.65;;;;;;;25.65;53.28;98936.75;4955182;28;103202;-71
2021/07/20 09:38:43;;;;;;;11.13;9.93;;;;;;;25.33;52.59;98935.50;4948866;28;103206;-71
2021/07/20 09:41:20;;;;;;;15.02;10.57;;;;;;;25.59;52.37;98933.00;4958017;28;102683;-72
2021/07/20 09:44:01;;;;;;;15.77;10.38;;;;;;;25.52;51.90;98931.25;4954957;28;102720;-72
2021/07/20 09:46:38;;;;;;;9.52;8.52;;;;;;;27.31;49.88;98924.94;4959082;28;103214;-72
2021/07/20 09:49:14;;;;;;;11.93;10.27;;;;;;;26.83;48.57;98932.53;4959192;28;103111;-71
2021/07/20 09:52:09;;;;;;;13.57;10.50;;;;;;;26.06;50.83;98921.28;4948284;28;102746;-71
2021/07/20 09:54:53;;;;;;;13.25;9.77;;;;;;;24.70;54.50;98926.50;4956274;28;102832;-72
2021/07/20 09:57:34;;;;;;;13.20;9.85;;;;;;;25.52;52.72;98926.69;4955235;28;103220;-72
2021/07/20 10:00:09;;;;;;;12.38;10.00;;;;;;;26.57;50.25;98923.50;4956799;28;103199;-72
2021/07/20 10:02:49;;;;;;;12.00;10.27;;;;;;;26.31;51.65;98921.59;4938959;28;102716;-72
2021/07/20 10:05:24;;;;;;;14.10;12.07;;;;;;;25.23;53.49;98927.78;4950978;28;102913;-73
2021/07/20 10:07:55;;;;;;;12.77;10.95;;;;;;;25.90;50.90;98917.09;4954990;28;103358;-72
2021/07/20 10:10:31;;;;;;;11.15;10.15;;;;;;;26.77;50.26;98924.34;4953744;28;103125;-72
2021/07/20 10:13:09;;;;;;;13.63;11.70;;;;;;;26.00;50.28;98921.28;4920711;28;102740;-72
2021/07/20 10:15:46;;;;;;;12.13;10.60;;;;;;;26.86;47.24;98921.22;4952047;28;103854;-72
2021/07/20 10:18:20;;;;;;;13.32;12.00;;;;;;;26.14;49.58;98923.00;4953635;28;103927;-72
2021/07/20 10:20:53;;;;;;;13.18;11.80;;;;;;;26.67;47.96;98916.63;4950699;28;103098;-72
2021/07/20 10:23:26;;;;;;;12.40;11.10;;;;;;;27.01;48.61;98912.88;4952118;28;102981;-72
2021/07/20 10:26:19;;;;;;;14.85;12.23;;;;;;;27.02;48.81;98904.56;4957587;28;102696;-72
2021/07/20 10:28:57;;;;;;;13.32;11.15;;;;;;;27.49;50.50;98908.00;4958809;28;103226;-72
2021/07/20 10:31:31;;;;;;;13.27;11.27;;;;;;;28.40;46.75;98911.34;4958034;28;103167;-72
2021/07/20 10:34:04;;;;;;;13.30;11.90;;;;;;;27.82;45.87;98911.44;4960147;28;102668;-72
2021/07/20 10:36:42;;;;;;;13.15;11.68;;;;;;;27.34;45.67;98915.56;4960492;28;102781;-72
2021/07/20 10:39:13;;;;;;;11.98;10.70;;;;;;;28.55;45.26;98909.13;4959275;28;103529;-72
2021/07/20 10:41:49;;;;;;;12.35;11.13;;;;;;;28.17;47.12;98906.47;4959432;28;103163;-72
2021/07/20 10:44:24;;;;;;;17.00;12.73;;;;;;;27.82;45.32;98911.44;4960337;28;102740;-73
2021/07/20 10:46:54;;;;;;;13.88;12.27;;;;;;;27.88;45.65;98910.56;4964064;28;102631;-72
2021/07/20 10:49:29;;;;;;;13.77;12.13;;;;;;;26.71;47.62;98906.22;4963381;28;103941;-72
2021/07/20 10:52:04;;;;;;;12.90;11.55;;;;;;;27.06;48.08;98915.78;4947371;28;103671;-72
2021/07/20 10:54:37;;;;;;;15.60;12.63;;;;;;;27.15;47.66;98908.28;4958969;28;102759;-73
2021/07/20 10:57:15;;;;;;;13.50;12.25;;;;;;;27.83;45.07;98913.09;4958465;28;102830;-72
2021/07/20 11:00:02;;;;;;;15.13;12.65;;;;;;;26.40;47.33;98921.19;4957485;28;103340;-72
2021/07/20 11:02:40;;;;;;;12.10;11.00;;;;;;;28.59;47.32;98902.22;4957230;28;103039;-72
2021/07/20 11:05:09;;;;;;;12.70;11.40;;;;;;;29.20;44.36;98905.88;4956497;28;102694;-73
2021/07/20 11:07:43;;;;;;;13.90;12.48;;;;;;;28.39;44.31;98905.09;4954157;28;102881;-73
2021/07/20 11:10:17;;;;;;;13.43;12.23;;;;;;;26.78;47.96;98907.06;4951814;28;103290;-73
2021/07/20 11:12:50;;;;;;;13.10;11.82;;;;;;;25.12;51.83;98913.97;4958216;28;103434;-73
2021/07/20 11:15:21;;;;;;;14.15;12.45;;;;;;;25.52;49.72;98909.63;4958369;28;102783;-73
2021/07/20 11:17:52;;;;;;;12.68;11.48;;;;;;;27.92;44.96;98906.38;4956396;28;103188;-72
2021/07/20 11:20:30;;;;;;;13.18;11.77;;;;;;;28.83;45.15;98904.13;4930983;28;104393;-72
2021/07/20 11:22:59;;;;;;;11.75;10.63;;;;;;;29.34;44.78;98903.88;4955994;28;103357;-73
2021/07/20 11:25:28;;;;;;;13.23;11.93;;;;;;;27.09;46.88;98903.72;4954610;28;102668;-74
2021/07/20 11:27:59;;;;;;;13.52;12.18;;;;;;;25.80;49.59;98910.38;4954569;28;102884;-74
2021/07/20 11:30:30;;;;;;;16.63;12.25;;;;;;;26.20;49.14;98900.53;4948027;28;103492;-74
2021/07/20 11:33:03;;;;;;;13.43;12.23;;;;;;;26.29;48.49;98899.31;4955352;28;103155;-75
2021/07/20 11:35:36;;;;;;;13.63;12.18;;;;;;;26.81;46.47;98896.63;4955016;28;102897;-73
2021/07/20 11:38:07;;;;;;;12.80;11.52;;;;;;;27.60;47.49;98891.06;4952008;28;102648;-74
2021/07/20 11:40:42;;;;;;;11.50;10.40;;;;;;;28.48;44.98;98887.47;4954228;28;104571;-73
2021/07/20 11:43:17;;;;;;;16.38;12.55;;;;;;;26.77;48.39;98889.13;4955932;28;103297;-73
2021/07/20 11:45:52;;;;;;;13.07;11.77;;;;;;;26.95;47.18;98892.88;4952880;28;102640;-73
2021/07/20 11:48:21;;;;;;;14.15;12.75;;;;;;;26.46;48.19;98889.75;4935640;28;103376;-74
2021/07/20 11:51:00;;;;;;;13.98;12.68;;;;;;;25.77;49.64;98892.69;4949358;28;103401;-73
2021/07/20 11:53:37;;;;;;;14.50;12.82;;;;;;;26.88;47.35;98881.22;4955187;28;103146;-74